createdAt,value
2019-03-26T00:00:58.670Z,1021.75
2019-03-26T00:01:58.665Z,1021.78
2019-03-26T00:02:58.543Z,1021.76
2019-03-26T00:04:05.918Z,1021.78
2019-03-26T00:04:58.520Z,1021.75
2019-03-26T00:05:58.489Z,1021.74
2019-03-26T00:06:58.445Z,1021.75
2019-03-26T00:07:58.392Z,1021.71
2019-03-26T00:08:58.381Z,1021.76
2019-03-26T00:09:58.385Z,1021.80
2019-03-26T00:10:58.322Z,1021.81
2019-03-26T00:11:58.313Z,1021.76
2019-03-26T00:12:58.280Z,1021.79
2019-03-26T00:13:59.397Z,1021.85
2019-03-26T00:14:58.192Z,1021.84
2019-03-26T00:15:58.266Z,1021.81
2019-03-26T00:16:58.144Z,1021.84
2019-03-26T00:17:58.107Z,1021.87
2019-03-26T00:18:58.074Z,1021.88
2019-03-26T00:19:58.165Z,1021.86
2019-03-26T00:20:58.018Z,1021.85
2019-03-26T00:21:59.078Z,1021.91
2019-03-26T00:22:57.963Z,1021.86
2019-03-26T00:23:57.972Z,1021.90
2019-03-26T00:24:57.979Z,1021.90
2019-03-26T00:25:57.917Z,1021.92
2019-03-26T00:26:57.884Z,1021.98
2019-03-26T00:27:57.935Z,1021.87
2019-03-26T00:28:57.876Z,1021.90
2019-03-26T00:29:57.753Z,1021.91
2019-03-26T00:30:57.739Z,1021.94
2019-03-26T00:31:57.688Z,1021.91
2019-03-26T00:32:57.673Z,1021.91
2019-03-26T00:33:57.742Z,1021.91
2019-03-26T00:34:57.633Z,1021.93
2019-03-26T00:35:57.590Z,1021.89
2019-03-26T00:36:57.666Z,1021.91
2019-03-26T00:37:57.575Z,1021.90
2019-03-26T00:38:58.590Z,1021.87
2019-03-26T00:39:57.473Z,1021.90
2019-03-26T00:40:57.577Z,1021.88
2019-03-26T00:41:57.411Z,1021.80
2019-03-26T00:42:57.395Z,1021.91
2019-03-26T00:43:57.328Z,1021.86
2019-03-26T00:44:57.307Z,1021.86
2019-03-26T00:45:57.307Z,1021.86
2019-03-26T00:46:57.253Z,1021.86
2019-03-26T00:47:57.228Z,1021.88
2019-03-26T00:48:58.255Z,1021.95
2019-03-26T00:49:57.196Z,1021.92
2019-03-26T00:50:59.204Z,1021.89
2019-03-26T00:51:57.107Z,1021.92
2019-03-26T00:52:57.150Z,1021.90
2019-03-26T00:53:57.072Z,1021.92
2019-03-26T00:54:57.139Z,1021.94
2019-03-26T00:55:57.591Z,1021.92
2019-03-26T00:56:58.079Z,1021.89
2019-03-26T00:57:56.942Z,1021.92
2019-03-26T00:58:57.008Z,1021.89
2019-03-26T00:59:56.914Z,1021.93
2019-03-26T01:00:56.979Z,1021.92
2019-03-26T01:01:56.822Z,1021.91
2019-03-26T01:02:56.925Z,1021.91
2019-03-26T01:03:56.758Z,1021.96
2019-03-26T01:04:57.896Z,1021.96
2019-03-26T01:05:56.724Z,1021.96
2019-03-26T01:06:57.795Z,1021.97
2019-03-26T01:07:56.644Z,1021.95
2019-03-26T01:08:56.764Z,1022.00
2019-03-26T01:09:56.580Z,1022.03
2019-03-26T01:10:56.664Z,1022.06
2019-03-26T01:11:56.558Z,1022.13
2019-03-26T01:12:57.624Z,1022.07
2019-03-26T01:13:56.482Z,1022.08
2019-03-26T01:14:56.451Z,1022.06
2019-03-26T01:15:57.544Z,1022.09
2019-03-26T01:16:56.390Z,1022.10
2019-03-26T01:17:56.358Z,1022.10
2019-03-26T01:18:56.328Z,1022.09
2019-03-26T01:19:56.298Z,1022.07
2019-03-26T01:20:56.333Z,1022.07
2019-03-26T01:21:56.235Z,1022.10
2019-03-26T01:22:56.215Z,1022.10
2019-03-26T01:23:56.178Z,1022.11
2019-03-26T01:24:56.124Z,1022.11
2019-03-26T01:25:56.117Z,1022.12
2019-03-26T01:26:56.138Z,1022.14
2019-03-26T01:27:56.059Z,1022.09
2019-03-26T01:28:56.006Z,1022.13
2019-03-26T01:29:55.976Z,1022.10
2019-03-26T01:30:55.988Z,1022.13
2019-03-26T01:31:55.973Z,1022.19
2019-03-26T01:32:55.952Z,1022.14
2019-03-26T01:33:55.891Z,1022.11
2019-03-26T01:34:55.985Z,1022.11
2019-03-26T01:35:55.816Z,1022.12
2019-03-26T01:36:55.812Z,1022.13
2019-03-26T01:37:55.784Z,1022.17
2019-03-26T01:38:56.880Z,1022.12
2019-03-26T01:39:55.795Z,1022.13
2019-03-26T01:40:55.758Z,1022.13
2019-03-26T01:41:55.658Z,1022.10
2019-03-26T01:42:56.793Z,1022.11
2019-03-26T01:43:55.582Z,1022.12
2019-03-26T01:44:56.695Z,1022.12
2019-03-26T01:45:55.518Z,1022.18
2019-03-26T01:46:55.578Z,1022.16
2019-03-26T01:47:55.518Z,1022.16
2019-03-26T01:48:56.532Z,1022.15
2019-03-26T01:49:55.407Z,1022.23
2019-03-26T01:50:55.475Z,1022.21
2019-03-26T01:51:55.360Z,1022.26
2019-03-26T01:52:57.396Z,1022.25
2019-03-26T01:53:55.298Z,1022.27
2019-03-26T01:54:56.428Z,1022.24
2019-03-26T01:55:55.232Z,1022.18
2019-03-26T01:56:55.269Z,1022.18
2019-03-26T01:57:55.183Z,1022.16
2019-03-26T01:58:55.165Z,1022.16
2019-03-26T01:59:55.119Z,1022.18
2019-03-26T02:00:55.186Z,1022.18
2019-03-26T02:01:55.066Z,1022.17
2019-03-26T02:02:56.130Z,1022.18
2019-03-26T02:03:55.006Z,1022.09
2019-03-26T02:05:00.347Z,1022.16
2019-03-26T02:05:54.923Z,1022.14
2019-03-26T02:06:56.025Z,1022.17
2019-03-26T02:07:54.864Z,1022.15
2019-03-26T02:08:54.909Z,1022.16
2019-03-26T02:09:54.807Z,1022.13
2019-03-26T02:10:55.851Z,1022.20
2019-03-26T02:11:54.785Z,1022.24
2019-03-26T02:12:54.865Z,1022.22
2019-03-26T02:13:54.706Z,1022.23
2019-03-26T02:15:01.324Z,1022.23
2019-03-26T02:15:54.640Z,1022.18
2019-03-26T02:16:54.673Z,1022.19
2019-03-26T02:17:54.605Z,1022.22
2019-03-26T02:18:54.612Z,1022.18
2019-03-26T02:19:54.560Z,1022.20
2019-03-26T02:20:55.617Z,1022.17
2019-03-26T02:21:54.509Z,1022.19
2019-03-26T02:22:54.566Z,1022.18
2019-03-26T02:23:54.403Z,1022.15
2019-03-26T02:24:54.491Z,1022.20
2019-03-26T02:25:54.332Z,1022.21
2019-03-26T02:26:54.387Z,1022.20
2019-03-26T02:27:54.278Z,1022.20
2019-03-26T02:28:54.361Z,1022.21
2019-03-26T02:29:54.232Z,1022.22
2019-03-26T02:30:54.282Z,1022.20
2019-03-26T02:31:54.151Z,1022.21
2019-03-26T02:32:54.224Z,1022.20
2019-03-26T02:33:54.103Z,1022.15
2019-03-26T02:34:54.154Z,1022.18
2019-03-26T02:35:54.044Z,1022.14
2019-03-26T02:36:53.995Z,1022.12
2019-03-26T02:37:54.056Z,1022.12
2019-03-26T02:38:53.944Z,1022.07
2019-03-26T02:39:53.915Z,1022.06
2019-03-26T02:40:53.976Z,1022.07
2019-03-26T02:41:53.846Z,1022.03
2019-03-26T02:42:53.812Z,1022.08
2019-03-26T02:43:53.809Z,1022.04
2019-03-26T02:44:53.754Z,1022.05
2019-03-26T02:45:53.723Z,1021.98
2019-03-26T02:46:53.705Z,1021.99
2019-03-26T02:47:53.667Z,1021.98
2019-03-26T02:48:53.727Z,1021.97
2019-03-26T02:49:53.609Z,1021.96
2019-03-26T02:50:53.618Z,1022.03
2019-03-26T02:51:53.619Z,1022.07
2019-03-26T02:52:53.622Z,1022.10
2019-03-26T02:53:53.558Z,1022.13
2019-03-26T02:54:53.544Z,1022.13
2019-03-26T02:55:53.423Z,1022.09
2019-03-26T02:56:53.503Z,1022.13
2019-03-26T02:57:53.374Z,1022.13
2019-03-26T02:58:53.526Z,1022.13
2019-03-26T02:59:53.313Z,1022.12
2019-03-26T03:00:53.363Z,1022.12
2019-03-26T03:01:53.262Z,1022.06
2019-03-26T03:02:53.314Z,1022.10
2019-03-26T03:03:53.208Z,1022.09
2019-03-26T03:04:53.217Z,1022.08
2019-03-26T03:05:53.117Z,1022.14
2019-03-26T03:06:53.204Z,1022.10
2019-03-26T03:07:53.061Z,1022.09
2019-03-26T03:08:53.160Z,1022.09
2019-03-26T03:09:53.004Z,1022.10
2019-03-26T03:10:53.031Z,1022.16
2019-03-26T03:11:52.987Z,1022.11
2019-03-26T03:12:53.039Z,1022.11
2019-03-26T03:13:52.904Z,1022.09
2019-03-26T03:14:53.027Z,1022.11
2019-03-26T03:15:52.842Z,1022.09
2019-03-26T03:16:52.870Z,1022.10
2019-03-26T03:17:52.782Z,1022.12
2019-03-26T03:18:52.802Z,1022.13
2019-03-26T03:19:52.741Z,1022.10
2019-03-26T03:20:52.810Z,1022.09
2019-03-26T03:21:52.657Z,1022.11
2019-03-26T03:22:52.749Z,1022.13
2019-03-26T03:23:52.594Z,1022.12
2019-03-26T03:24:52.624Z,1022.14
2019-03-26T03:25:52.577Z,1022.16
2019-03-26T03:26:52.547Z,1022.15
2019-03-26T03:27:52.477Z,1022.20
2019-03-26T03:28:52.532Z,1022.17
2019-03-26T03:29:52.438Z,1022.15
2019-03-26T03:30:52.453Z,1022.14
2019-03-26T03:31:52.371Z,1022.12
2019-03-26T03:32:52.363Z,1022.13
2019-03-26T03:33:52.314Z,1022.12
2019-03-26T03:34:52.375Z,1022.13
2019-03-26T03:35:53.158Z,1022.15
2019-03-26T03:36:52.309Z,1022.13
2019-03-26T03:37:52.219Z,1022.16
2019-03-26T03:38:52.236Z,1022.13
2019-03-26T03:39:52.130Z,1022.18
2019-03-26T03:40:52.108Z,1022.15
2019-03-26T03:41:52.078Z,1022.13
2019-03-26T03:42:52.128Z,1022.17
2019-03-26T03:43:52.013Z,1022.11
2019-03-26T03:44:52.072Z,1022.09
2019-03-26T03:45:51.934Z,1022.07
2019-03-26T03:46:51.938Z,1022.10
2019-03-26T03:47:51.890Z,1022.11
2019-03-26T03:48:51.957Z,1022.14
2019-03-26T03:49:51.820Z,1022.14
2019-03-26T03:50:51.894Z,1022.13
2019-03-26T03:51:51.743Z,1022.15
2019-03-26T03:52:51.802Z,1022.17
2019-03-26T03:53:51.698Z,1022.15
2019-03-26T03:54:51.687Z,1022.19
2019-03-26T03:55:51.643Z,1022.22
2019-03-26T03:56:51.715Z,1022.25
2019-03-26T03:57:52.996Z,1022.29
2019-03-26T03:58:51.624Z,1022.31
2019-03-26T03:59:51.576Z,1022.26
2019-03-26T04:00:51.533Z,1022.27
2019-03-26T04:01:51.474Z,1022.24
2019-03-26T04:02:51.447Z,1022.19
2019-03-26T04:03:51.558Z,1022.18
2019-03-26T04:04:51.482Z,1022.21
2019-03-26T04:06:07.831Z,1022.23
2019-03-26T04:06:51.370Z,1022.25
2019-03-26T04:07:51.286Z,1022.17
2019-03-26T04:08:51.281Z,1022.19
2019-03-26T04:09:51.225Z,1022.14
2019-03-26T04:10:51.303Z,1022.13
2019-03-26T04:11:51.166Z,1022.18
2019-03-26T04:12:51.299Z,1022.17
2019-03-26T04:13:51.115Z,1022.17
2019-03-26T04:14:51.138Z,1022.15
2019-03-26T04:15:51.036Z,1022.21
2019-03-26T04:16:51.122Z,1022.24
2019-03-26T04:17:50.983Z,1022.20
2019-03-26T04:18:51.047Z,1022.19
2019-03-26T04:19:50.929Z,1022.12
2019-03-26T04:20:50.991Z,1022.17
2019-03-26T04:21:50.865Z,1022.11
2019-03-26T04:22:50.862Z,1022.16
2019-03-26T04:23:50.796Z,1022.12
2019-03-26T04:24:50.886Z,1022.15
2019-03-26T04:25:50.736Z,1022.10
2019-03-26T04:26:50.789Z,1022.11
2019-03-26T04:27:50.692Z,1022.13
2019-03-26T04:28:50.762Z,1022.12
2019-03-26T04:29:50.627Z,1022.16
2019-03-26T04:30:50.638Z,1022.15
2019-03-26T04:31:50.565Z,1022.15
2019-03-26T04:32:50.632Z,1022.10
2019-03-26T04:33:50.569Z,1022.13
2019-03-26T04:34:50.548Z,1022.17
2019-03-26T04:35:50.429Z,1022.15
2019-03-26T04:36:50.442Z,1022.16
2019-03-26T04:37:50.407Z,1022.22
2019-03-26T04:38:50.478Z,1022.22
2019-03-26T04:39:50.354Z,1022.18
2019-03-26T04:40:50.386Z,1022.18
2019-03-26T04:41:50.276Z,1022.15
2019-03-26T04:42:50.288Z,1022.22
2019-03-26T04:43:50.196Z,1022.19
2019-03-26T04:44:50.197Z,1022.20
2019-03-26T04:45:50.167Z,1022.18
2019-03-26T04:46:50.201Z,1022.19
2019-03-26T04:47:50.177Z,1022.15
2019-03-26T04:48:50.131Z,1022.11
2019-03-26T04:49:50.039Z,1022.12
2019-03-26T04:50:50.057Z,1022.15
2019-03-26T04:51:49.968Z,1022.15
2019-03-26T04:52:50.071Z,1022.21
2019-03-26T04:53:49.918Z,1022.15
2019-03-26T04:54:49.969Z,1022.18
2019-03-26T04:55:49.870Z,1022.18
2019-03-26T04:56:50.065Z,1022.20
2019-03-26T04:57:49.776Z,1022.18
2019-03-26T04:58:50.900Z,1022.19
2019-03-26T04:59:49.748Z,1022.16
2019-03-26T05:00:49.752Z,1022.23
2019-03-26T05:01:49.662Z,1022.19
2019-03-26T05:02:49.739Z,1022.17
2019-03-26T05:03:49.591Z,1022.16
2019-03-26T05:04:49.688Z,1022.17
2019-03-26T05:05:49.562Z,1022.20
2019-03-26T05:06:49.509Z,1022.20
2019-03-26T05:07:49.505Z,1022.16
2019-03-26T05:08:49.459Z,1022.17
2019-03-26T05:09:49.485Z,1022.19
2019-03-26T05:10:49.473Z,1022.14
2019-03-26T05:11:49.401Z,1022.21
2019-03-26T05:12:49.380Z,1022.22
2019-03-26T05:13:49.311Z,1022.19
2019-03-26T05:14:49.330Z,1022.26
2019-03-26T05:15:49.274Z,1022.23
2019-03-26T05:16:49.254Z,1022.22
2019-03-26T05:17:49.193Z,1022.20
2019-03-26T05:18:49.148Z,1022.23
2019-03-26T05:19:49.136Z,1022.25
2019-03-26T05:20:49.091Z,1022.21
2019-03-26T05:21:49.063Z,1022.20
2019-03-26T05:22:49.048Z,1022.17
2019-03-26T05:23:51.760Z,1022.20
2019-03-26T05:24:48.993Z,1022.23
2019-03-26T05:25:48.941Z,1022.19
2019-03-26T05:26:48.920Z,1022.19
2019-03-26T05:27:48.899Z,1022.25
2019-03-26T05:28:48.920Z,1022.22
2019-03-26T05:29:48.810Z,1022.25
2019-03-26T05:30:48.797Z,1022.17
2019-03-26T05:31:48.849Z,1022.22
2019-03-26T05:32:48.721Z,1022.19
2019-03-26T05:33:48.699Z,1022.19
2019-03-26T05:34:48.677Z,1022.19
2019-03-26T05:35:51.465Z,1022.19
2019-03-26T05:36:51.689Z,1022.19
2019-03-26T05:37:48.660Z,1022.19
2019-03-26T05:38:48.618Z,1022.19
2019-03-26T05:39:48.550Z,1022.23
2019-03-26T05:40:48.628Z,1022.24
2019-03-26T05:41:48.480Z,1022.19
2019-03-26T05:42:48.451Z,1022.22
2019-03-26T05:43:48.494Z,1022.27
2019-03-26T05:44:48.404Z,1022.24
2019-03-26T05:45:48.410Z,1022.27
2019-03-26T05:46:48.315Z,1022.25
2019-03-26T05:47:48.307Z,1022.26
2019-03-26T05:48:48.273Z,1022.17
2019-03-26T05:49:48.218Z,1022.19
2019-03-26T05:50:48.198Z,1022.18
2019-03-26T05:51:48.246Z,1022.19
2019-03-26T05:52:48.138Z,1022.16
2019-03-26T05:53:48.160Z,1022.15
2019-03-26T05:54:48.082Z,1022.14
2019-03-26T05:55:48.056Z,1022.18
2019-03-26T05:56:48.033Z,1022.19
2019-03-26T05:57:47.986Z,1022.18
2019-03-26T05:58:47.973Z,1022.19
2019-03-26T05:59:48.056Z,1022.17
2019-03-26T06:00:47.918Z,1022.16
2019-03-26T06:01:47.922Z,1022.09
2019-03-26T06:02:47.836Z,1022.10
2019-03-26T06:03:47.911Z,1022.09
2019-03-26T06:04:47.822Z,1022.11
2019-03-26T06:05:47.746Z,1022.12
2019-03-26T06:06:47.856Z,1022.11
2019-03-26T06:07:47.683Z,1022.15
2019-03-26T06:08:47.745Z,1022.14
2019-03-26T06:09:47.634Z,1022.14
2019-03-26T06:10:47.656Z,1022.14
2019-03-26T06:11:47.565Z,1022.10
2019-03-26T06:12:50.196Z,1022.09
2019-03-26T06:13:47.562Z,1022.08
2019-03-26T06:14:47.516Z,1022.03
2019-03-26T06:15:47.451Z,1022.05
2019-03-26T06:16:47.411Z,1022.06
2019-03-26T06:17:47.372Z,1022.11
2019-03-26T06:18:48.476Z,1022.11
2019-03-26T06:19:47.319Z,1022.14
2019-03-26T06:20:47.357Z,1022.14
2019-03-26T06:21:47.275Z,1022.10
2019-03-26T06:22:47.268Z,1022.18
2019-03-26T06:23:47.219Z,1022.15
2019-03-26T06:24:47.276Z,1022.15
2019-03-26T06:25:47.149Z,1022.21
2019-03-26T06:26:47.187Z,1022.20
2019-03-26T06:27:47.085Z,1022.18
2019-03-26T06:28:47.110Z,1022.24
2019-03-26T06:29:47.033Z,1022.22
2019-03-26T06:30:47.024Z,1022.25
2019-03-26T06:31:46.963Z,1022.27
2019-03-26T06:32:47.021Z,1022.27
2019-03-26T06:33:46.911Z,1022.30
2019-03-26T06:34:47.983Z,1022.26
2019-03-26T06:35:46.882Z,1022.27
2019-03-26T06:36:48.960Z,1022.26
2019-03-26T06:37:46.792Z,1022.26
2019-03-26T06:38:46.852Z,1022.28
2019-03-26T06:39:46.741Z,1022.27
2019-03-26T06:40:46.791Z,1022.30
2019-03-26T06:41:46.658Z,1022.31
2019-03-26T06:42:46.746Z,1022.28
2019-03-26T06:43:46.648Z,1022.31
2019-03-26T06:44:46.603Z,1022.31
2019-03-26T06:45:46.566Z,1022.32
2019-03-26T06:46:46.618Z,1022.29
2019-03-26T06:47:46.521Z,1022.37
2019-03-26T06:48:46.564Z,1022.37
2019-03-26T06:49:46.464Z,1022.41
2019-03-26T06:50:46.419Z,1022.45
2019-03-26T06:51:46.510Z,1022.51
2019-03-26T06:52:46.446Z,1022.53
2019-03-26T06:53:46.299Z,1022.56
2019-03-26T06:54:46.330Z,1022.58
2019-03-26T06:55:47.398Z,1022.60
2019-03-26T06:56:46.234Z,1022.56
2019-03-26T06:57:46.281Z,1022.62
2019-03-26T06:58:46.174Z,1022.59
2019-03-26T06:59:47.178Z,1022.68
2019-03-26T07:00:46.113Z,1022.64
2019-03-26T07:01:46.215Z,1022.68
2019-03-26T07:02:46.039Z,1022.66
2019-03-26T07:03:46.090Z,1022.65
2019-03-26T07:04:45.979Z,1022.61
2019-03-26T07:05:45.998Z,1022.68
2019-03-26T07:06:45.926Z,1022.71
2019-03-26T07:07:45.955Z,1022.75
2019-03-26T07:08:45.877Z,1022.73
2019-03-26T07:09:45.904Z,1022.75
2019-03-26T07:10:45.924Z,1022.73
2019-03-26T07:11:45.790Z,1022.76
2019-03-26T07:12:45.774Z,1022.78
2019-03-26T07:13:45.720Z,1022.79
2019-03-26T07:14:47.728Z,1022.75
2019-03-26T07:15:45.700Z,1022.74
2019-03-26T07:16:47.721Z,1022.78
2019-03-26T07:17:45.645Z,1022.83
2019-03-26T07:18:47.634Z,1022.84
2019-03-26T07:19:45.560Z,1022.84
2019-03-26T07:20:45.543Z,1022.86
2019-03-26T07:21:49.797Z,1022.89
2019-03-26T07:22:46.500Z,1022.84
2019-03-26T07:23:45.469Z,1022.78
2019-03-26T07:24:45.538Z,1022.85
2019-03-26T07:25:45.360Z,1022.82
2019-03-26T07:26:52.369Z,1022.82
2019-03-26T07:27:45.443Z,1022.78
2019-03-26T07:28:46.345Z,1022.76
2019-03-26T07:29:45.279Z,1022.73
2019-03-26T07:30:46.290Z,1022.78
2019-03-26T07:31:45.241Z,1022.77
2019-03-26T07:32:45.270Z,1022.78
2019-03-26T07:33:45.088Z,1022.83
2019-03-26T07:34:45.150Z,1022.85
2019-03-26T07:35:45.087Z,1022.82
2019-03-26T07:36:45.060Z,1022.80
2019-03-26T07:37:51.973Z,1022.86
2019-03-26T07:38:45.034Z,1022.79
2019-03-26T07:39:52.918Z,1022.83
2019-03-26T07:40:44.934Z,1022.79
2019-03-26T07:41:45.012Z,1022.80
2019-03-26T07:42:44.836Z,1022.84
2019-03-26T07:43:44.975Z,1022.84
2019-03-26T07:44:45.502Z,1022.86
2019-03-26T07:45:44.843Z,1022.87
2019-03-26T07:46:44.701Z,1022.89
2019-03-26T07:47:44.713Z,1022.88
2019-03-26T07:48:44.669Z,1022.88
2019-03-26T07:49:44.650Z,1022.91
2019-03-26T07:50:44.628Z,1022.98
2019-03-26T07:51:44.572Z,1022.96
2019-03-26T07:52:44.666Z,1023.01
2019-03-26T07:53:44.503Z,1022.99
2019-03-26T07:54:44.540Z,1022.97
2019-03-26T07:55:44.469Z,1023.04
2019-03-26T07:56:44.483Z,1022.98
2019-03-26T07:57:44.389Z,1022.99
2019-03-26T07:58:44.387Z,1022.96
2019-03-26T07:59:44.402Z,1022.95
2019-03-26T08:00:44.299Z,1022.95
2019-03-26T08:01:44.289Z,1023.01
2019-03-26T08:02:44.376Z,1022.94
2019-03-26T08:03:44.242Z,1022.97
2019-03-26T08:04:45.289Z,1022.94
2019-03-26T08:05:44.169Z,1022.94
2019-03-26T08:06:45.218Z,1022.95
2019-03-26T08:07:57.529Z,1022.98
2019-03-26T08:08:44.108Z,1022.98
2019-03-26T08:09:44.266Z,1022.99
2019-03-26T08:10:44.005Z,1022.97
2019-03-26T08:11:44.063Z,1022.97
2019-03-26T08:12:43.932Z,1022.96
2019-03-26T08:13:44.026Z,1023.00
2019-03-26T08:14:43.908Z,1022.95
2019-03-26T08:15:43.900Z,1022.95
2019-03-26T08:16:43.849Z,1022.97
2019-03-26T08:17:45.452Z,1023.00
2019-03-26T08:18:43.762Z,1023.00
2019-03-26T08:19:44.831Z,1022.99
2019-03-26T08:20:43.743Z,1022.97
2019-03-26T08:21:43.777Z,1022.92
2019-03-26T08:22:43.724Z,1022.97
2019-03-26T08:23:43.699Z,1022.90
2019-03-26T08:24:43.662Z,1022.91
2019-03-26T08:25:43.750Z,1022.88
2019-03-26T08:26:43.572Z,1022.88
2019-03-26T08:27:43.541Z,1022.84
2019-03-26T08:28:43.525Z,1022.81
2019-03-26T08:29:43.454Z,1022.82
2019-03-26T08:30:43.429Z,1022.81
2019-03-26T08:31:43.803Z,1022.86
2019-03-26T08:32:45.270Z,1022.86
2019-03-26T08:33:43.323Z,1022.90
2019-03-26T08:34:46.509Z,1022.88
2019-03-26T08:35:43.341Z,1022.88
2019-03-26T08:36:43.225Z,1022.87
2019-03-26T08:37:43.260Z,1022.89
2019-03-26T08:38:43.146Z,1022.88
2019-03-26T08:39:43.165Z,1022.84
2019-03-26T08:40:43.102Z,1022.81
2019-03-26T08:41:43.162Z,1022.85
2019-03-26T08:42:43.027Z,1022.84
2019-03-26T08:43:42.989Z,1022.82
2019-03-26T08:44:43.114Z,1022.80
2019-03-26T08:45:42.940Z,1022.81
2019-03-26T08:46:46.121Z,1022.80
2019-03-26T08:47:42.964Z,1022.73
2019-03-26T08:48:42.847Z,1022.87
2019-03-26T08:49:42.829Z,1022.88
2019-03-26T08:50:42.776Z,1022.89
2019-03-26T08:51:43.843Z,1022.90
2019-03-26T08:52:42.734Z,1022.92
2019-03-26T08:53:43.720Z,1022.94
2019-03-26T08:54:42.696Z,1022.92
2019-03-26T08:55:42.713Z,1022.94
2019-03-26T08:56:42.614Z,1022.86
2019-03-26T08:57:43.118Z,1022.87
2019-03-26T08:58:42.557Z,1022.93
2019-03-26T08:59:42.718Z,1022.87
2019-03-26T09:00:42.522Z,1022.94
2019-03-26T09:01:42.708Z,1022.92
2019-03-26T09:02:42.474Z,1023.03
2019-03-26T09:03:42.524Z,1022.99
2019-03-26T09:04:42.378Z,1023.02
2019-03-26T09:05:42.410Z,1023.01
2019-03-26T09:06:42.360Z,1023.01
2019-03-26T09:07:44.377Z,1023.01
2019-03-26T09:08:42.284Z,1023.01
2019-03-26T09:09:42.328Z,1023.03
2019-03-26T09:10:51.545Z,1023.05
2019-03-26T09:11:42.215Z,1022.97
2019-03-26T09:12:42.266Z,1023.01
2019-03-26T09:13:42.148Z,1023.02
2019-03-26T09:14:42.154Z,1023.02
2019-03-26T09:15:42.047Z,1023.12
2019-03-26T09:16:42.065Z,1023.04
2019-03-26T09:17:44.425Z,1023.07
2019-03-26T09:18:41.960Z,1023.10
2019-03-26T09:19:42.022Z,1023.06
2019-03-26T09:20:41.927Z,1023.04
2019-03-26T09:21:42.014Z,1023.09
2019-03-26T09:22:41.851Z,1023.02
2019-03-26T09:23:41.869Z,1023.06
2019-03-26T09:24:41.794Z,1022.98
2019-03-26T09:25:41.797Z,1023.00
2019-03-26T09:26:41.709Z,1023.06
2019-03-26T09:27:41.724Z,1023.03
2019-03-26T09:28:41.661Z,1022.99
2019-03-26T09:29:41.730Z,1022.99
2019-03-26T09:30:41.621Z,1022.94
2019-03-26T09:31:41.646Z,1022.94
2019-03-26T09:32:41.573Z,1022.93
2019-03-26T09:33:41.614Z,1022.88
2019-03-26T09:34:41.482Z,1022.89
2019-03-26T09:35:42.507Z,1022.91
2019-03-26T09:36:41.425Z,1022.94
2019-03-26T09:37:43.596Z,1022.87
2019-03-26T09:38:41.567Z,1022.92
2019-03-26T09:39:41.323Z,1022.95
2019-03-26T09:40:41.314Z,1022.91
2019-03-26T09:41:41.357Z,1022.91
2019-03-26T09:42:41.272Z,1022.90
2019-03-26T09:43:41.365Z,1022.92
2019-03-26T09:44:41.178Z,1022.91
2019-03-26T09:45:42.244Z,1022.95
2019-03-26T09:46:41.116Z,1022.95
2019-03-26T09:47:42.191Z,1022.89
2019-03-26T09:48:41.082Z,1022.95
2019-03-26T09:49:41.146Z,1022.94
2019-03-26T09:50:41.097Z,1022.96
2019-03-26T09:51:41.084Z,1022.86
2019-03-26T09:52:42.445Z,1022.89
2019-03-26T09:53:40.969Z,1022.85
2019-03-26T09:54:41.089Z,1022.79
2019-03-26T09:55:41.005Z,1022.83
2019-03-26T09:56:40.881Z,1022.81
2019-03-26T09:57:56.532Z,1022.80
2019-03-26T09:58:40.860Z,1022.74
2019-03-26T09:59:41.806Z,1022.73
2019-03-26T10:00:40.821Z,1022.73
2019-03-26T10:01:40.806Z,1022.74
2019-03-26T10:02:43.151Z,1022.74
2019-03-26T10:03:40.612Z,1022.79
2019-03-26T10:04:40.580Z,1022.74
2019-03-26T10:05:40.624Z,1022.79
2019-03-26T10:06:40.612Z,1022.82
2019-03-26T10:07:40.486Z,1022.76
2019-03-26T10:08:51.778Z,1022.78
2019-03-26T10:09:40.438Z,1022.73
2019-03-26T10:10:40.420Z,1022.77
2019-03-26T10:11:40.374Z,1022.74
2019-03-26T10:12:40.349Z,1022.74
2019-03-26T10:13:40.368Z,1022.83
2019-03-26T10:14:40.296Z,1022.74
2019-03-26T10:15:40.260Z,1022.80
2019-03-26T10:16:40.232Z,1022.74
2019-03-26T10:17:40.287Z,1022.74
2019-03-26T10:18:40.174Z,1022.73
2019-03-26T10:19:40.206Z,1022.74
2019-03-26T10:20:40.111Z,1022.73
2019-03-26T10:21:40.128Z,1022.72
2019-03-26T10:22:40.053Z,1022.77
2019-03-26T10:23:40.146Z,1022.69
2019-03-26T10:24:39.985Z,1022.74
2019-03-26T10:25:40.077Z,1022.72
2019-03-26T10:26:39.989Z,1022.71
2019-03-26T10:27:39.947Z,1022.74
2019-03-26T10:28:39.885Z,1022.75
2019-03-26T10:29:39.858Z,1022.73
2019-03-26T10:30:39.808Z,1022.75
2019-03-26T10:31:40.914Z,1022.76
2019-03-26T10:32:39.736Z,1022.78
2019-03-26T10:33:39.781Z,1022.75
2019-03-26T10:34:39.703Z,1022.77
2019-03-26T10:35:39.685Z,1022.80
2019-03-26T10:36:41.633Z,1022.79
2019-03-26T10:37:39.697Z,1022.73
2019-03-26T10:38:39.562Z,1022.67
2019-03-26T10:39:39.618Z,1022.66
2019-03-26T10:40:39.519Z,1022.65
2019-03-26T10:41:39.609Z,1022.62
2019-03-26T10:42:39.443Z,1022.60
2019-03-26T10:43:39.439Z,1022.62
2019-03-26T10:44:39.396Z,1022.58
2019-03-26T10:45:39.458Z,1022.58
2019-03-26T10:46:39.354Z,1022.47
2019-03-26T10:47:39.303Z,1022.46
2019-03-26T10:48:39.380Z,1022.57
2019-03-26T10:49:39.250Z,1022.52
2019-03-26T10:50:39.306Z,1022.52
2019-03-26T10:51:39.197Z,1022.52
2019-03-26T10:52:39.165Z,1022.44
2019-03-26T10:53:39.136Z,1022.47
2019-03-26T10:54:39.098Z,1022.47
2019-03-26T10:55:39.143Z,1022.40
2019-03-26T10:56:39.223Z,1022.46
2019-03-26T10:57:39.168Z,1022.46
2019-03-26T10:58:39.036Z,1022.41
2019-03-26T10:59:39.147Z,1022.45
2019-03-26T11:00:38.979Z,1022.40
2019-03-26T11:01:38.949Z,1022.36
2019-03-26T11:02:38.855Z,1022.41
2019-03-26T11:03:38.872Z,1022.42
2019-03-26T11:04:38.787Z,1022.41
2019-03-26T11:05:38.792Z,1022.41
2019-03-26T11:06:38.789Z,1022.40
2019-03-26T11:07:38.705Z,1022.38
2019-03-26T11:08:38.688Z,1022.36
2019-03-26T11:09:38.657Z,1022.41
2019-03-26T11:10:38.639Z,1022.37
2019-03-26T11:11:38.656Z,1022.28
2019-03-26T11:12:39.686Z,1022.36
2019-03-26T11:13:38.545Z,1022.26
2019-03-26T11:14:46.457Z,1022.29
2019-03-26T11:15:38.470Z,1022.30
2019-03-26T11:16:38.568Z,1022.28
2019-03-26T11:17:38.408Z,1022.33
2019-03-26T11:18:55.498Z,1022.25
2019-03-26T11:19:38.354Z,1022.26
2019-03-26T11:20:38.334Z,1022.31
2019-03-26T11:21:38.298Z,1022.34
2019-03-26T11:22:38.341Z,1022.33
2019-03-26T11:23:38.238Z,1022.30
2019-03-26T11:24:38.433Z,1022.35
2019-03-26T11:25:38.169Z,1022.38
2019-03-26T11:26:38.327Z,1022.34
2019-03-26T11:27:38.142Z,1022.30
2019-03-26T11:28:38.238Z,1022.30
2019-03-26T11:29:38.150Z,1022.42
2019-03-26T11:30:38.155Z,1022.42
2019-03-26T11:31:38.014Z,1022.37
2019-03-26T11:32:38.050Z,1022.44
2019-03-26T11:33:38.009Z,1022.48
2019-03-26T11:34:37.987Z,1022.48
2019-03-26T11:35:37.893Z,1022.45
2019-03-26T11:36:37.888Z,1022.51
2019-03-26T11:37:37.830Z,1022.38
2019-03-26T11:38:37.895Z,1022.38
2019-03-26T11:39:37.766Z,1022.43
2019-03-26T11:40:37.763Z,1022.38
2019-03-26T11:41:37.828Z,1022.31
2019-03-26T11:42:37.699Z,1022.32
2019-03-26T11:43:37.790Z,1022.34
2019-03-26T11:44:37.624Z,1022.30
2019-03-26T11:45:37.730Z,1022.27
2019-03-26T11:46:37.552Z,1022.25
2019-03-26T11:47:37.539Z,1022.22
2019-03-26T11:48:37.518Z,1022.19
2019-03-26T11:49:37.515Z,1022.25
2019-03-26T11:50:37.441Z,1022.17
2019-03-26T11:51:37.554Z,1022.28
2019-03-26T11:52:37.383Z,1022.27
2019-03-26T11:53:37.440Z,1022.27
2019-03-26T11:54:37.328Z,1022.30
2019-03-26T11:55:37.527Z,1022.32
2019-03-26T11:56:37.252Z,1022.26
2019-03-26T11:57:37.257Z,1022.30
2019-03-26T11:58:37.292Z,1022.33
2019-03-26T11:59:37.171Z,1022.28
2019-03-26T12:00:37.314Z,1022.33
2019-03-26T12:01:37.095Z,1022.26
2019-03-26T12:02:37.265Z,1022.35
2019-03-26T12:03:37.074Z,1022.31
2019-03-26T12:04:37.024Z,1022.45
2019-03-26T12:05:37.019Z,1022.39